Time;durP1;ratioP1;P1;durP2;ratioP2;P2;SDS_P1;SDS_P2;PMS_P1;PMS_P2;Temp;Humidity;BMP_temperature;BMP_pressure;BME280_temperature;BME280_humidity;BME280_pressure;Samples;Min_cycle;Max_cycle;Signal;HPM_P1;HPM_P2
2023/12/26 00:02:17;;;;;;;1.70;1.23;;;7.10;99.90;;;;;;5014505;28;20607;-80
2023/12/26 00:04:44;;;;;;;1.70;1.23;;;7.00;99.90;;;;;;5008320;28;20213;-80
2023/12/26 00:07:11;;;;;;;3.72;1.55;;;7.00;99.90;;;;;;5011818;28;20198;-79
2023/12/26 00:09:39;;;;;;;1.00;0.90;;;7.00;99.90;;;;;;5012061;28;20215;-80
2023/12/26 00:12:07;;;;;;;2.13;0.90;;;7.00;99.90;;;;;;5010973;28;20218;-80
2023/12/26 00:14:34;;;;;;;1.00;0.90;;;7.00;99.90;;;;;;5011974;28;20698;-79
2023/12/26 04:32:53;;;;;;;1.58;1.48;;;7.50;99.90;;;;;;4994850;22;20283;-94
2023/12/26 04:38:13;;;;;;;1.80;1.70;;;7.50;99.90;;;;;;5003856;28;20188;-94
2023/12/26 04:40:40;;;;;;;1.00;0.90;;;7.40;99.90;;;;;;5004612;28;20196;-94
2023/12/26 04:43:12;;;;;;;3.08;1.52;;;7.40;99.90;;;;;;5002173;28;20255;-96
2023/12/26 04:48:28;;;;;;;1.33;1.20;;;7.60;99.90;;;;;;4998211;28;20730;-94
2023/12/26 04:51:03;;;;;;;1.80;1.20;;;7.50;99.90;;;;;;5003340;28;20236;-94
2023/12/26 05:06:43;;;;;;;1.77;1.50;;;7.60;99.90;;;;;;5009318;28;20270;-76
2023/12/26 05:09:10;;;;;;;1.50;1.20;;;7.50;99.90;;;;;;5011050;28;20214;-76
2023/12/26 05:11:36;;;;;;;1.35;1.20;;;7.50;99.90;;;;;;5010633;28;20225;-76
2023/12/26 05:14:03;;;;;;;4.45;1.48;;;7.60;99.90;;;;;;5011095;28;20208;-75
2023/12/26 05:16:30;;;;;;;2.47;1.27;;;7.60;99.90;;;;;;5011016;28;20224;-76
2023/12/26 05:18:57;;;;;;;2.15;1.55;;;7.60;99.90;;;;;;5010817;28;20212;-76
2023/12/26 05:21:24;;;;;;;1.30;1.10;;;7.60;99.90;;;;;;5010963;28;20247;-75
2023/12/26 05:23:52;;;;;;;5.57;1.45;;;7.60;99.90;;;;;;5012345;28;20203;-76
2023/12/26 05:26:19;;;;;;;3.58;1.77;;;7.60;99.90;;;;;;5011401;28;20207;-75
2023/12/26 05:28:45;;;;;;;1.60;1.20;;;7.60;99.90;;;;;;5012225;28;20736;-77
2023/12/26 05:31:12;;;;;;;2.78;1.05;;;7.60;99.90;;;;;;5015706;28;20222;-77
2023/12/26 05:33:39;;;;;;;1.42;1.10;;;7.70;99.90;;;;;;5014206;28;20582;-77
2023/12/26 05:36:06;;;;;;;3.10;1.38;;;7.60;99.90;;;;;;5013738;28;20210;-77
2023/12/26 05:38:32;;;;;;;1.38;1.05;;;7.60;99.90;;;;;;5013174;28;20297;-76
2023/12/26 05:41:03;;;;;;;2.08;1.52;;;7.70;99.90;;;;;;5012031;28;20571;-77
2023/12/26 05:43:30;;;;;;;1.33;1.23;;;7.70;99.90;;;;;;5011645;28;20225;-77
2023/12/26 05:45:57;;;;;;;2.42;1.30;;;7.70;99.90;;;;;;5016833;28;20579;-77
2023/12/26 05:48:24;;;;;;;1.30;1.20;;;7.70;99.90;;;;;;5020075;28;20208;-77
2023/12/26 05:50:50;;;;;;;2.70;1.35;;;7.70;99.90;;;;;;5015998;28;20721;-76
2023/12/26 05:53:17;;;;;;;1.52;1.42;;;7.70;99.90;;;;;;5010533;28;20336;-76
2023/12/26 05:55:44;;;;;;;3.55;2.03;;;7.70;99.90;;;;;;5012468;28;20202;-77
2023/12/26 05:58:12;;;;;;;1.40;1.30;;;7.60;99.90;;;;;;5017915;28;20209;-76
2023/12/26 06:00:38;;;;;;;1.67;1.27;;;7.60;99.90;;;;;;5022426;28;20226;-77
2023/12/26 06:03:05;;;;;;;3.03;1.23;;;7.60;99.90;;;;;;5022830;28;20865;-77
2023/12/26 06:05:32;;;;;;;1.50;1.40;;;7.60;99.90;;;;;;5023505;28;20215;-76
2023/12/26 06:07:59;;;;;;;3.17;1.10;;;7.50;99.90;;;;;;5022946;28;20532;-77
2023/12/26 06:10:26;;;;;;;6.20;1.20;;;7.50;99.90;;;;;;5018682;28;20706;-77
2023/12/26 06:12:52;;;;;;;4.40;2.47;;;7.50;99.90;;;;;;5013674;28;20206;-77
2023/12/26 06:15:20;;;;;;;2.85;1.30;;;7.50;99.90;;;;;;5013747;28;20210;-77
2023/12/26 06:17:47;;;;;;;2.38;1.48;;;7.50;99.90;;;;;;5005632;28;20215;-76
2023/12/26 06:20:15;;;;;;;2.38;1.40;;;7.50;99.90;;;;;;5012838;28;20200;-76
2023/12/26 06:22:42;;;;;;;1.23;1.13;;;7.50;99.90;;;;;;5013118;28;20224;-77
2023/12/26 06:25:09;;;;;;;3.95;2.00;;;7.50;99.90;;;;;;5013445;28;20213;-76
2023/12/26 06:27:37;;;;;;;4.82;1.40;;;7.50;99.90;;;;;;5013088;28;20206;-77
2023/12/26 06:30:05;;;;;;;5.65;1.50;;;7.60;99.90;;;;;;5012979;28;20222;-77
2023/12/26 06:32:33;;;;;;;1.35;1.25;;;7.50;99.90;;;;;;5012830;28;20226;-77
2023/12/26 06:34:59;;;;;;;1.20;1.10;;;7.50;99.90;;;;;;5013077;28;20211;-76
2023/12/26 06:37:26;;;;;;;7.88;1.50;;;7.50;99.90;;;;;;5012779;28;20215;-76
2023/12/26 06:39:53;;;;;;;1.02;0.93;;;7.50;99.90;;;;;;5012649;28;20250;-76
2023/12/26 06:42:20;;;;;;;3.92;1.60;;;7.50;99.90;;;;;;5012692;28;20722;-76
2023/12/26 06:44:47;;;;;;;1.52;1.42;;;7.50;99.90;;;;;;5012678;28;20209;-77
2023/12/26 06:47:14;;;;;;;2.08;1.60;;;7.60;99.90;;;;;;5012603;28;20211;-77
2023/12/26 06:49:45;;;;;;;1.38;1.27;;;7.50;99.90;;;;;;5012470;28;20210;-77
2023/12/26 06:52:13;;;;;;;2.45;1.15;;;7.60;99.90;;;;;;5012854;28;20219;-76
2023/12/26 06:54:40;;;;;;;1.42;1.20;;;7.60;99.90;;;;;;5012430;28;20261;-76
2023/12/26 06:57:08;;;;;;;3.08;1.45;;;7.60;99.90;;;;;;5012516;28;20214;-76
2023/12/26 06:59:35;;;;;;;1.77;1.08;;;7.70;99.90;;;;;;5012374;28;20217;-75
2023/12/26 07:02:05;;;;;;;1.80;1.27;;;7.60;99.90;;;;;;5012148;28;20231;-76
2023/12/26 07:04:31;;;;;;;1.95;1.30;;;7.60;99.90;;;;;;5010995;28;20221;-75
2023/12/26 07:06:59;;;;;;;1.27;1.15;;;7.60;99.90;;;;;;5010433;28;20212;-75
2023/12/26 07:09:26;;;;;;;2.55;1.15;;;7.60;99.90;;;;;;5010550;28;20583;-77
2023/12/26 07:11:53;;;;;;;5.45;1.95;;;7.60;99.90;;;;;;5004233;28;20234;-77
2023/12/26 07:14:19;;;;;;;1.23;1.10;;;7.60;99.90;;;;;;5011276;28;20214;-76
2023/12/26 07:16:47;;;;;;;1.30;1.20;;;7.60;99.90;;;;;;5009106;28;20219;-77
2023/12/26 07:19:14;;;;;;;1.40;1.17;;;7.60;99.90;;;;;;5010041;28;20566;-74
2023/12/26 07:21:40;;;;;;;1.27;1.17;;;7.60;99.90;;;;;;5007778;28;20346;-76
2023/12/26 07:24:08;;;;;;;1.25;1.00;;;7.60;99.90;;;;;;5009664;28;20230;-76
2023/12/26 07:26:35;;;;;;;2.38;1.40;;;7.60;99.90;;;;;;5008416;28;20214;-76
2023/12/26 07:29:02;;;;;;;2.38;1.40;;;7.60;99.90;;;;;;5010114;28;20668;-75
2023/12/26 07:31:30;;;;;;;3.10;1.42;;;7.50;99.90;;;;;;5007234;28;20230;-75
2023/12/26 07:33:59;;;;;;;1.10;1.00;;;7.50;99.90;;;;;;5010065;28;20203;-75
2023/12/26 07:36:25;;;;;;;1.25;1.15;;;7.50;99.90;;;;;;5007835;28;20199;-75
2023/12/26 07:38:52;;;;;;;1.20;1.10;;;7.50;99.90;;;;;;5008208;28;20199;-76
2023/12/26 07:41:20;;;;;;;1.13;1.02;;;7.50;99.90;;;;;;5008183;28;20226;-76
2023/12/26 07:43:47;;;;;;;2.92;1.38;;;7.50;99.90;;;;;;5007328;28;20246;-76
2023/12/26 07:46:14;;;;;;;1.30;1.10;;;7.60;99.90;;;;;;5008664;28;20647;-76
2023/12/26 07:48:41;;;;;;;1.77;1.45;;;7.60;99.90;;;;;;5006156;28;20212;-76
2023/12/26 07:51:10;;;;;;;2.92;1.60;;;7.60;99.90;;;;;;5008180;28;20565;-76
2023/12/26 07:53:36;;;;;;;1.83;1.25;;;7.60;99.90;;;;;;5006299;28;20249;-76
2023/12/26 07:56:04;;;;;;;1.98;1.30;;;7.60;99.90;;;;;;5008041;28;20209;-76
2023/12/26 07:58:32;;;;;;;1.40;1.20;;;7.60;99.90;;;;;;5006161;28;20210;-76
2023/12/26 08:00:58;;;;;;;1.80;1.40;;;7.60;99.90;;;;;;4994868;28;20233;-75
2023/12/26 08:03:25;;;;;;;1.90;1.50;;;7.60;99.90;;;;;;5005764;28;20236;-76
2023/12/26 08:05:52;;;;;;;1.40;1.30;;;7.60;99.90;;;;;;5005177;28;20226;-76
2023/12/26 08:08:18;;;;;;;5.68;1.38;;;7.70;99.90;;;;;;5007068;28;20277;-76
2023/12/26 08:10:47;;;;;;;1.23;1.10;;;7.60;99.90;;;;;;5004781;28;20589;-74
2023/12/26 08:13:14;;;;;;;2.53;1.15;;;7.70;99.90;;;;;;5007656;28;20200;-77
2023/12/26 08:15:42;;;;;;;1.65;1.27;;;7.80;99.90;;;;;;5006417;28;20207;-77
2023/12/26 08:18:09;;;;;;;2.33;1.40;;;7.80;99.90;;;;;;5007374;28;20213;-77
2023/12/26 08:20:37;;;;;;;3.10;1.42;;;7.90;99.90;;;;;;5005564;28;20226;-76
2023/12/26 08:23:04;;;;;;;2.45;1.33;;;7.90;99.90;;;;;;5003265;28;20218;-77
2023/12/26 08:25:30;;;;;;;2.35;1.45;;;7.90;99.90;;;;;;5000677;28;20203;-77
2023/12/26 08:27:57;;;;;;;2.65;1.50;;;8.00;99.90;;;;;;5005639;28;20210;-77
2023/12/26 08:30:24;;;;;;;1.30;1.20;;;8.00;99.90;;;;;;5001946;28;20208;-74
2023/12/26 08:32:52;;;;;;;2.58;1.60;;;8.10;99.90;;;;;;5001259;28;20584;-76
2023/12/26 08:35:18;;;;;;;1.67;1.58;;;8.10;99.90;;;;;;5002976;28;20210;-75
2023/12/26 08:37:45;;;;;;;2.92;0.90;;;8.10;99.90;;;;;;5000927;28;20211;-77
2023/12/26 08:40:12;;;;;;;1.83;1.40;;;8.20;99.90;;;;;;5005051;28;20293;-77
2023/12/26 08:42:39;;;;;;;2.17;1.20;;;8.20;99.90;;;;;;5003595;28;20230;-77
2023/12/26 08:45:06;;;;;;;3.85;1.55;;;8.20;99.90;;;;;;5005143;28;20198;-76
2023/12/26 08:47:34;;;;;;;5.03;1.33;;;8.20;99.90;;;;;;5003050;28;20202;-76
2023/12/26 08:50:02;;;;;;;1.58;1.48;;;8.20;99.90;;;;;;5002969;28;20217;-76
2023/12/26 08:52:29;;;;;;;1.60;1.27;;;8.30;99.90;;;;;;5002509;28;20227;-75
2023/12/26 08:54:56;;;;;;;1.90;1.13;;;8.30;99.90;;;;;;5004865;28;20208;-76
2023/12/26 08:57:23;;;;;;;1.50;1.08;;;8.30;99.90;;;;;;5004825;28;20229;-75
2023/12/26 08:59:50;;;;;;;2.08;1.55;;;8.40;99.90;;;;;;4995773;28;20208;-76
2023/12/26 09:02:16;;;;;;;5.22;1.60;;;8.40;99.90;;;;;;5005429;28;20223;-76
2023/12/26 09:04:42;;;;;;;5.03;1.45;;;8.40;99.90;;;;;;5003679;28;20317;-74
2023/12/26 09:07:10;;;;;;;1.90;1.53;;;8.40;99.90;;;;;;5010268;28;20282;-76
2023/12/26 09:09:37;;;;;;;3.03;1.50;;;8.40;99.90;;;;;;5010528;28;20211;-76
2023/12/26 09:12:04;;;;;;;2.15;1.42;;;8.40;99.90;;;;;;5004940;28;20228;-76
2023/12/26 09:14:31;;;;;;;1.70;1.10;;;8.40;99.90;;;;;;5011071;28;20203;-76
2023/12/26 09:16:58;;;;;;;2.42;1.00;;;8.40;99.90;;;;;;5010366;28;20667;-75
2023/12/26 09:19:25;;;;;;;3.00;1.90;;;8.50;99.90;;;;;;5010578;28;20690;-76
2023/12/26 09:21:51;;;;;;;3.90;1.25;;;8.50;99.90;;;;;;5009810;28;20231;-76
2023/12/26 09:24:20;;;;;;;3.25;1.27;;;8.50;99.90;;;;;;5010839;28;20265;-71
2023/12/26 09:26:47;;;;;;;2.17;1.73;;;8.60;99.90;;;;;;5016143;28;20203;-75
2023/12/26 09:29:14;;;;;;;1.10;0.90;;;8.60;99.90;;;;;;5023441;28;20282;-75
2023/12/26 09:31:41;;;;;;;1.55;1.45;;;8.50;99.90;;;;;;5020723;28;20235;-74
2023/12/26 09:34:08;;;;;;;3.33;1.20;;;8.60;99.90;;;;;;5027145;28;20207;-75
2023/12/26 09:36:36;;;;;;;5.47;1.83;;;8.60;99.90;;;;;;5020481;28;20241;-73
2023/12/26 09:39:03;;;;;;;1.23;0.90;;;8.60;99.90;;;;;;5014251;28;20210;-72
2023/12/26 09:41:32;;;;;;;1.13;1.02;;;8.60;99.90;;;;;;5013958;28;20277;-74
2023/12/26 09:43:59;;;;;;;1.95;1.33;;;8.50;99.90;;;;;;5013701;28;20225;-73
2023/12/26 09:46:28;;;;;;;4.13;1.10;;;8.50;99.90;;;;;;5014391;28;20202;-73
2023/12/26 09:48:56;;;;;;;2.75;1.25;;;8.60;99.90;;;;;;5018960;28;20240;-73
2023/12/26 09:51:23;;;;;;;1.10;0.90;;;8.60;99.90;;;;;;5021976;28;20279;-77
2023/12/26 09:53:58;;;;;;;2.97;1.80;;;8.60;99.90;;;;;;5013867;28;20701;-74
2023/12/26 09:56:26;;;;;;;6.97;1.35;;;8.60;99.90;;;;;;5013991;28;20574;-74
2023/12/26 09:58:57;;;;;;;2.15;1.10;;;8.60;99.90;;;;;;5013228;28;20558;-73
2023/12/26 10:01:24;;;;;;;1.10;1.00;;;8.60;99.90;;;;;;5006461;28;20228;-76
2023/12/26 10:03:53;;;;;;;1.90;1.15;;;8.60;99.90;;;;;;5012932;28;20244;-73
2023/12/26 10:06:22;;;;;;;2.38;0.90;;;8.60;99.90;;;;;;5002155;28;20243;-72
2023/12/26 10:08:49;;;;;;;1.45;1.20;;;8.60;99.90;;;;;;5013591;28;20223;-72
2023/12/26 10:11:16;;;;;;;2.00;1.20;;;8.70;99.90;;;;;;5013742;28;20232;-75
2023/12/26 10:13:45;;;;;;;0.90;0.80;;;8.70;99.90;;;;;;5013511;28;20206;-73
2023/12/26 10:16:13;;;;;;;1.30;1.17;;;8.80;99.90;;;;;;5013938;28;20220;-75
2023/12/26 10:18:41;;;;;;;0.93;0.82;;;8.80;99.90;;;;;;5013674;28;20235;-73
2023/12/26 10:21:08;;;;;;;1.25;1.15;;;8.80;99.90;;;;;;5021574;28;20254;-73
2023/12/26 10:23:35;;;;;;;1.25;1.10;;;8.80;99.90;;;;;;5013348;28;20700;-73
2023/12/26 10:26:03;;;;;;;2.25;1.05;;;8.80;99.90;;;;;;5019443;28;20240;-74
2023/12/26 10:28:30;;;;;;;1.55;0.93;;;8.80;99.90;;;;;;5013001;28;20202;-75
2023/12/26 10:30:56;;;;;;;1.50;1.20;;;8.80;99.90;;;;;;5012743;28;20286;-77
2023/12/26 10:33:26;;;;;;;1.27;1.17;;;8.80;99.90;;;;;;5013909;28;20664;-76
2023/12/26 10:36:02;;;;;;;2.20;1.08;;;8.80;99.90;;;;;;5013286;28;20257;-76
2023/12/26 10:38:29;;;;;;;1.00;0.90;;;8.80;99.90;;;;;;5013259;28;20641;-77
2023/12/26 10:40:59;;;;;;;1.30;1.20;;;8.80;99.90;;;;;;5014574;28;20232;-77
2023/12/26 10:43:28;;;;;;;2.40;1.17;;;8.80;99.90;;;;;;5011484;28;20231;-75
2023/12/26 10:45:56;;;;;;;1.25;0.80;;;8.90;99.90;;;;;;5012882;28;20212;-75
2023/12/26 10:48:28;;;;;;;3.20;1.40;;;8.90;99.90;;;;;;5012863;28;20536;-76
2023/12/26 10:50:59;;;;;;;0.95;0.95;;;8.80;99.90;;;;;;5012601;28;20237;-76
2023/12/26 10:53:36;;;;;;;1.70;1.02;;;8.80;99.90;;;;;;5012966;28;20212;-77
2023/12/26 10:56:04;;;;;;;1.45;1.17;;;8.70;99.90;;;;;;5013270;28;20207;-77
2023/12/26 10:58:32;;;;;;;1.48;0.90;;;8.80;99.90;;;;;;5012661;28;20210;-76
2023/12/26 11:00:58;;;;;;;1.30;0.93;;;8.80;99.90;;;;;;5012093;28;20232;-76
2023/12/26 11:03:26;;;;;;;1.60;1.50;;;8.90;99.90;;;;;;5012591;28;20600;-77
2023/12/26 11:05:53;;;;;;;1.52;0.90;;;8.80;99.90;;;;;;5003469;28;20738;-77
2023/12/26 11:08:19;;;;;;;1.30;1.13;;;8.80;99.90;;;;;;5003471;28;20213;-77
2023/12/26 11:10:46;;;;;;;4.43;1.75;;;8.90;99.90;;;;;;4999981;28;20225;-77
2023/12/26 11:13:13;;;;;;;2.17;1.20;;;8.90;99.90;;;;;;5003177;28;20603;-77
2023/12/26 11:15:39;;;;;;;5.95;1.73;;;9.00;99.90;;;;;;5000728;28;20213;-76
2023/12/26 11:18:05;;;;;;;1.35;1.25;;;9.10;99.90;;;;;;5001830;28;20204;-75
2023/12/26 11:20:33;;;;;;;1.98;1.10;;;9.30;99.90;;;;;;5001059;28;20213;-77
2023/12/26 11:23:00;;;;;;;2.03;1.33;;;9.60;99.90;;;;;;5000662;28;20222;-77
2023/12/26 11:25:25;;;;;;;2.88;1.25;;;9.70;99.90;;;;;;5003308;28;20638;-77
2023/12/26 11:27:52;;;;;;;1.53;1.00;;;9.80;99.90;;;;;;5003137;28;20202;-77
2023/12/26 11:30:19;;;;;;;2.85;1.40;;;9.80;99.90;;;;;;4999242;28;20229;-77
2023/12/26 11:32:45;;;;;;;2.20;1.20;;;10.10;99.90;;;;;;4999702;28;20207;-77
2023/12/26 11:35:11;;;;;;;1.87;1.27;;;10.30;99.90;;;;;;5001905;28;20212;-77
2023/12/26 11:37:39;;;;;;;1.50;1.00;;;10.40;99.90;;;;;;4999697;28;20572;-76
2023/12/26 11:40:05;;;;;;;1.35;1.25;;;10.40;99.90;;;;;;5000093;28;20214;-77
2023/12/26 11:42:32;;;;;;;1.13;1.00;;;10.40;99.90;;;;;;5000469;28;20230;-77
2023/12/26 11:44:58;;;;;;;1.67;1.23;;;10.20;99.90;;;;;;4999213;28;20498;-77
2023/12/26 11:47:24;;;;;;;2.28;1.38;;;10.10;99.90;;;;;;5005893;28;20203;-77
2023/12/26 11:49:50;;;;;;;1.83;0.97;;;10.10;99.90;;;;;;4998612;28;20691;-77
2023/12/26 11:52:16;;;;;;;0.90;0.75;;;10.00;99.90;;;;;;5001344;28;20502;-76
2023/12/26 11:54:44;;;;;;;1.30;1.02;;;9.90;99.90;;;;;;4993562;28;20206;-77
2023/12/26 11:57:11;;;;;;;1.10;1.00;;;9.80;99.90;;;;;;5000223;28;20301;-77
2023/12/26 11:59:36;;;;;;;0.90;0.80;;;9.80;99.90;;;;;;4999041;28;20227;-77
2023/12/26 12:02:03;;;;;;;2.10;1.00;;;9.80;99.90;;;;;;4999058;28;20463;-77
2023/12/26 12:04:29;;;;;;;1.10;1.00;;;9.70;99.90;;;;;;5002159;28;20232;-77
2023/12/26 12:07:10;;;;;;;1.65;1.02;;;9.70;99.90;;;;;;5011626;28;20217;-76
2023/12/26 12:09:37;;;;;;;4.43;1.75;;;9.60;99.90;;;;;;5012125;28;20286;-76
2023/12/26 12:12:04;;;;;;;1.50;1.15;;;9.50;99.90;;;;;;5010877;28;20230;-76
2023/12/26 12:14:30;;;;;;;2.33;1.10;;;9.50;99.90;;;;;;5011426;28;20213;-76
2023/12/26 12:17:02;;;;;;;4.63;1.20;;;9.50;99.90;;;;;;5011481;28;20655;-74
2023/12/26 12:19:29;;;;;;;1.70;1.17;;;9.40;99.90;;;;;;5015344;28;20213;-76
2023/12/26 12:21:55;;;;;;;1.98;1.17;;;9.50;99.90;;;;;;5011994;28;20724;-76
2023/12/26 12:24:22;;;;;;;1.40;1.07;;;9.40;99.90;;;;;;5011023;28;20229;-76
2023/12/26 12:27:04;;;;;;;1.40;1.00;;;9.40;99.90;;;;;;5011438;28;20226;-76
2023/12/26 12:29:57;;;;;;;2.95;1.05;;;9.40;99.90;;;;;;5011725;28;20215;-76
2023/12/26 12:32:29;;;;;;;1.58;0.90;;;9.40;99.90;;;;;;5011583;28;20234;-74
2023/12/26 12:35:10;;;;;;;1.25;1.02;;;9.40;99.90;;;;;;5011444;28;20554;-75
2023/12/26 12:37:36;;;;;;;1.08;0.98;;;9.50;99.90;;;;;;5011013;28;20217;-76
2023/12/26 12:40:04;;;;;;;1.53;1.00;;;9.60;99.90;;;;;;5010557;28;20256;-76
2023/12/26 12:42:34;;;;;;;0.80;0.73;;;9.60;99.90;;;;;;5010728;28;20727;-77
2023/12/26 12:44:59;;;;;;;1.17;0.90;;;9.60;99.90;;;;;;5010761;28;20723;-77
2023/12/26 12:47:26;;;;;;;1.40;0.90;;;9.60;99.90;;;;;;5010701;28;20206;-75
2023/12/26 12:49:54;;;;;;;0.90;0.80;;;9.70;99.90;;;;;;5010740;28;20204;-76
2023/12/26 12:52:20;;;;;;;1.15;0.70;;;9.60;99.90;;;;;;5010477;28;20229;-76
2023/12/26 12:54:46;;;;;;;1.20;0.80;;;9.70;99.90;;;;;;5011006;28;20212;-76
2023/12/26 12:57:12;;;;;;;1.10;1.00;;;9.70;99.90;;;;;;5010589;28;20659;-77
2023/12/26 12:59:39;;;;;;;1.10;0.90;;;9.60;99.90;;;;;;5011045;28;20218;-77
2023/12/26 13:02:10;;;;;;;1.60;1.00;;;9.60;99.90;;;;;;5010457;28;20229;-76
2023/12/26 13:04:40;;;;;;;1.00;0.90;;;9.50;99.90;;;;;;5010793;28;20229;-77
2023/12/26 13:07:05;;;;;;;0.93;0.82;;;9.40;99.90;;;;;;5000107;28;20224;-76
2023/12/26 13:09:31;;;;;;;0.93;0.83;;;9.40;99.90;;;;;;5001037;28;20202;-77
2023/12/26 13:11:58;;;;;;;1.10;0.87;;;9.40;99.90;;;;;;4999134;28;20251;-76
2023/12/26 13:14:24;;;;;;;1.20;1.10;;;9.30;99.90;;;;;;5001135;28;20455;-76
2023/12/26 13:16:52;;;;;;;0.80;0.80;;;9.20;99.90;;;;;;5004037;28;20216;-77
2023/12/26 13:19:18;;;;;;;1.10;0.80;;;9.20;99.90;;;;;;5002148;28;20723;-76
2023/12/26 13:21:44;;;;;;;1.45;1.23;;;9.20;99.90;;;;;;4998854;28;20309;-76
2023/12/26 13:24:20;;;;;;;0.80;0.70;;;9.10;99.90;;;;;;5000015;28;20703;-77
2023/12/26 13:26:46;;;;;;;0.95;0.85;;;9.00;99.90;;;;;;4993521;28;20677;-75
2023/12/26 13:29:23;;;;;;;1.05;0.95;;;9.00;99.90;;;;;;5000169;28;20207;-76
2023/12/26 13:31:49;;;;;;;1.10;1.00;;;9.00;99.90;;;;;;4993379;28;20236;-76
2023/12/26 13:34:16;;;;;;;1.10;0.82;;;9.00;99.90;;;;;;5000039;28;20570;-76
2023/12/26 13:36:43;;;;;;;1.00;0.70;;;9.00;99.90;;;;;;4998755;28;20224;-75
2023/12/26 13:39:10;;;;;;;1.00;0.80;;;8.90;99.90;;;;;;4998846;28;20263;-76
2023/12/26 13:41:37;;;;;;;1.85;1.08;;;8.90;99.90;;;;;;4998959;28;20864;-77
2023/12/26 13:44:04;;;;;;;1.30;0.80;;;9.00;99.90;;;;;;4998163;28;20300;-76
2023/12/26 13:46:30;;;;;;;2.05;0.93;;;8.90;99.90;;;;;;4997819;28;20209;-77
2023/12/26 13:48:55;;;;;;;1.77;1.20;;;9.00;99.90;;;;;;4997881;28;20210;-76
2023/12/26 13:51:23;;;;;;;1.00;0.90;;;9.00;99.90;;;;;;4998964;28;20230;-75
2023/12/26 13:53:49;;;;;;;1.23;1.13;;;9.00;99.90;;;;;;4998079;28;20211;-76
2023/12/26 13:56:16;;;;;;;1.17;0.80;;;9.00;99.90;;;;;;4998794;28;20725;-76
2023/12/26 13:58:41;;;;;;;1.60;0.80;;;9.00;99.90;;;;;;4997798;28;20213;-75
2023/12/26 14:01:08;;;;;;;3.63;1.00;;;9.00;99.90;;;;;;4997446;28;20238;-75
2023/12/26 14:03:35;;;;;;;1.23;1.02;;;9.10;99.90;;;;;;4998451;28;20201;-75
2023/12/26 14:06:02;;;;;;;2.55;1.25;;;9.10;99.90;;;;;;4997325;28;20214;-75
2023/12/26 14:08:30;;;;;;;2.88;1.10;;;9.10;99.90;;;;;;4998020;28;20221;-76
2023/12/26 14:10:57;;;;;;;1.25;1.15;;;9.10;99.90;;;;;;4996807;28;20230;-76
2023/12/26 14:13:23;;;;;;;2.67;1.15;;;9.10;99.90;;;;;;4997880;28;20229;-76
2023/12/26 14:15:49;;;;;;;1.83;0.90;;;9.10;99.90;;;;;;4995558;28;20198;-77
2023/12/26 14:18:16;;;;;;;1.33;0.80;;;9.10;99.90;;;;;;4997304;28;20660;-77
2023/12/26 14:20:43;;;;;;;1.15;1.00;;;9.10;99.90;;;;;;4996277;28;20229;-77
2023/12/26 14:23:09;;;;;;;1.42;0.90;;;9.10;99.90;;;;;;4996317;28;20691;-76
2023/12/26 14:25:37;;;;;;;0.80;0.70;;;9.10;99.90;;;;;;4997093;28;20257;-76
2023/12/26 14:28:04;;;;;;;0.80;0.70;;;9.10;99.90;;;;;;4994813;28;20214;-77
2023/12/26 14:30:31;;;;;;;2.15;0.90;;;9.00;99.90;;;;;;4996453;28;20209;-76
2023/12/26 14:32:57;;;;;;;1.50;1.30;;;9.00;99.90;;;;;;4993439;28;20208;-76
2023/12/26 14:35:24;;;;;;;1.50;1.17;;;8.90;99.90;;;;;;4996669;28;20199;-75
2023/12/26 14:37:51;;;;;;;1.33;1.23;;;8.90;99.90;;;;;;4995643;28;20204;-76
2023/12/26 14:40:17;;;;;;;1.65;1.20;;;8.80;99.90;;;;;;4996087;28;20201;-76
2023/12/26 14:42:46;;;;;;;1.30;1.00;;;8.70;99.90;;;;;;4989018;28;20200;-74
2023/12/26 14:45:12;;;;;;;1.10;0.98;;;8.70;99.90;;;;;;4995394;28;20230;-74
2023/12/26 14:47:39;;;;;;;1.02;0.93;;;8.70;99.90;;;;;;4995773;28;20212;-76
2023/12/26 14:50:06;;;;;;;4.72;1.40;;;8.70;99.90;;;;;;4995155;28;20215;-76
2023/12/26 14:52:32;;;;;;;2.25;1.02;;;8.80;99.90;;;;;;4995859;28;20631;-74
2023/12/26 14:54:59;;;;;;;1.23;0.93;;;8.70;99.90;;;;;;4995391;28;20209;-75
2023/12/26 14:57:26;;;;;;;2.10;1.52;;;8.70;99.90;;;;;;4995541;28;20217;-75
2023/12/26 14:59:54;;;;;;;1.67;1.25;;;8.60;99.90;;;;;;4994766;28;20205;-76
2023/12/26 15:02:22;;;;;;;2.17;1.13;;;8.60;99.90;;;;;;4995338;28;20710;-78
2023/12/26 15:04:49;;;;;;;1.02;0.93;;;8.50;99.90;;;;;;4999283;28;20220;-75
2023/12/26 15:07:16;;;;;;;2.22;1.42;;;8.50;99.90;;;;;;5012160;28;20207;-74
2023/12/26 15:09:43;;;;;;;1.27;0.93;;;8.40;99.90;;;;;;5012813;28;20227;-77
2023/12/26 15:12:10;;;;;;;1.13;1.00;;;8.40;99.90;;;;;;5012695;28;20739;-77
2023/12/26 15:14:37;;;;;;;1.92;1.13;;;8.40;99.90;;;;;;5012789;28;20222;-77
2023/12/26 15:17:05;;;;;;;1.00;0.90;;;8.40;99.90;;;;;;5012865;28;20204;-77
2023/12/26 15:19:32;;;;;;;1.30;1.15;;;8.40;99.90;;;;;;5013030;28;20212;-77
2023/12/26 15:21:58;;;;;;;1.45;1.20;;;8.40;99.90;;;;;;5012864;28;20325;-76
2023/12/26 15:24:25;;;;;;;2.42;1.00;;;8.40;99.90;;;;;;5014200;28;20225;-76
2023/12/26 15:26:52;;;;;;;1.10;1.00;;;8.40;99.90;;;;;;5014463;28;20215;-77
2023/12/26 15:29:19;;;;;;;2.25;1.10;;;8.40;99.90;;;;;;5012584;28;20211;-75
2023/12/26 15:31:46;;;;;;;1.10;1.00;;;8.40;99.90;;;;;;5012063;28;20225;-76
2023/12/26 15:34:14;;;;;;;1.50;1.40;;;8.40;99.90;;;;;;5012408;28;20227;-75
2023/12/26 15:36:41;;;;;;;1.00;0.90;;;8.40;99.90;;;;;;5011821;28;20214;-75
2023/12/26 15:39:09;;;;;;;4.38;1.10;;;8.40;99.90;;;;;;5012045;28;20236;-77
2023/12/26 15:41:35;;;;;;;1.05;0.95;;;8.40;99.90;;;;;;5011339;28;20581;-76
2023/12/26 15:44:02;;;;;;;1.55;1.08;;;8.40;99.90;;;;;;5012060;28;20202;-76
2023/12/26 15:46:30;;;;;;;1.05;0.95;;;8.40;99.90;;;;;;5012112;28;20638;-76
2023/12/26 15:48:57;;;;;;;1.65;1.02;;;8.40;99.90;;;;;;5012735;28;20211;-77
2023/12/26 15:51:25;;;;;;;2.05;1.55;;;8.40;99.90;;;;;;5011339;28;20227;-76
2023/12/26 15:53:53;;;;;;;1.05;0.95;;;8.40;99.90;;;;;;5011970;28;20212;-76
2023/12/26 15:56:21;;;;;;;1.20;1.02;;;8.50;99.90;;;;;;5011604;28;20215;-76
2023/12/26 15:58:48;;;;;;;1.00;0.90;;;8.50;99.90;;;;;;5011484;28;20227;-76
2023/12/26 16:01:16;;;;;;;1.90;1.13;;;8.50;99.90;;;;;;5011430;28;20226;-76
2023/12/26 16:03:44;;;;;;;1.85;1.10;;;8.50;99.90;;;;;;5011597;28;20632;-75
2023/12/26 16:06:17;;;;;;;2.00;1.48;;;8.50;99.90;;;;;;5011368;28;20224;-76
2023/12/26 16:08:45;;;;;;;1.75;0.80;;;8.50;99.90;;;;;;5011420;28;20210;-75
2023/12/26 16:11:12;;;;;;;1.15;1.02;;;8.50;99.90;;;;;;5011180;28;20253;-75
2023/12/26 16:13:39;;;;;;;1.10;1.00;;;8.50;99.90;;;;;;5011008;28;20219;-75
2023/12/26 16:16:06;;;;;;;2.30;1.30;;;8.50;99.90;;;;;;5011511;28;20687;-75
2023/12/26 16:18:33;;;;;;;1.50;1.00;;;8.50;99.90;;;;;;5010711;28;20214;-76
2023/12/26 16:21:02;;;;;;;1.38;1.27;;;8.60;99.90;;;;;;5011062;28;20233;-75
2023/12/26 16:23:28;;;;;;;1.80;1.23;;;8.60;99.90;;;;;;5010904;28;20684;-76
2023/12/26 16:25:57;;;;;;;1.30;1.10;;;8.50;99.90;;;;;;5011066;28;20224;-76
2023/12/26 16:28:23;;;;;;;2.28;1.10;;;8.50;99.90;;;;;;5010474;28;20211;-75
2023/12/26 16:30:50;;;;;;;1.15;0.80;;;8.40;99.90;;;;;;5010324;28;20602;-74
2023/12/26 16:33:17;;;;;;;1.63;0.95;;;8.40;99.90;;;;;;5011250;28;20214;-76
2023/12/26 16:35:43;;;;;;;1.10;1.00;;;8.40;99.90;;;;;;5010837;28;20260;-75
2023/12/26 16:38:10;;;;;;;1.27;1.17;;;8.40;99.90;;;;;;5010328;28;20227;-75
2023/12/26 16:40:37;;;;;;;1.30;1.02;;;8.40;99.90;;;;;;5010741;28;20234;-76
2023/12/26 16:43:05;;;;;;;1.60;1.15;;;8.40;99.90;;;;;;5017623;28;20215;-76
2023/12/26 16:45:32;;;;;;;1.15;0.95;;;8.50;99.90;;;;;;5013180;28;20219;-76
2023/12/26 16:48:00;;;;;;;1.88;1.40;;;8.50;99.90;;;;;;5011238;28;20209;-76
2023/12/26 16:50:27;;;;;;;1.35;1.00;;;8.50;99.90;;;;;;5010435;28;20211;-76
2023/12/26 16:52:53;;;;;;;1.10;1.00;;;8.50;99.90;;;;;;5011374;28;20208;-75
2023/12/26 16:55:20;;;;;;;2.58;1.38;;;8.50;99.90;;;;;;5011069;28;20205;-76
2023/12/26 16:57:47;;;;;;;2.08;1.67;;;8.50;99.90;;;;;;5010597;28;20581;-76
2023/12/26 17:00:15;;;;;;;1.55;1.23;;;8.50;99.90;;;;;;5015835;28;20212;-75
2023/12/26 17:02:42;;;;;;;1.70;1.60;;;8.50;99.90;;;;;;5017456;28;20284;-76
2023/12/26 17:05:09;;;;;;;2.95;1.90;;;8.50;99.90;;;;;;5007464;28;20725;-77
2023/12/26 17:07:36;;;;;;;3.25;1.60;;;8.50;99.90;;;;;;5005799;28;20208;-76
2023/12/26 17:10:03;;;;;;;2.45;1.20;;;8.50;99.90;;;;;;5006498;28;20202;-76
2023/12/26 17:12:30;;;;;;;1.10;0.90;;;8.50;99.90;;;;;;5005722;28;20327;-77
2023/12/26 17:14:57;;;;;;;1.40;1.27;;;8.50;99.90;;;;;;5007104;28;20763;-76
2023/12/26 17:17:26;;;;;;;1.10;0.90;;;8.40;99.90;;;;;;5005911;28;20211;-77
2023/12/26 17:19:53;;;;;;;1.48;1.02;;;8.40;99.90;;;;;;4992696;28;20235;-77
2023/12/26 17:22:20;;;;;;;4.68;1.58;;;8.30;99.90;;;;;;5006203;28;20714;-77
2023/12/26 17:24:47;;;;;;;2.15;1.30;;;8.30;99.90;;;;;;5005686;28;20209;-76
2023/12/26 17:27:14;;;;;;;1.00;0.90;;;8.20;99.90;;;;;;5005887;28;20207;-76
2023/12/26 17:29:41;;;;;;;1.83;1.20;;;8.20;99.90;;;;;;5004872;28;20215;-76
2023/12/26 17:32:07;;;;;;;2.10;1.25;;;8.10;99.90;;;;;;4997583;28;20220;-77
2023/12/26 17:34:35;;;;;;;1.15;1.05;;;8.00;99.90;;;;;;5004617;28;20212;-77